sensor_id;sensor_type;location;lat;lon;timestamp;pressure;altitude;pressure_sealevel;temperature;humidity
54951;BME280;40854;45.282;4.302;2022-09-30T10:51:00;91749.34;;;14.79;59.19
54951;BME280;40854;45.282;4.302;2022-09-30T10:53:33;91745.06;;;14.93;57.99
54951;BME280;40854;45.282;4.302;2022-09-30T10:56:00;91752.06;;;15.13;57.73
54951;BME280;40854;45.282;4.302;2022-09-30T10:58:48;91750.63;;;15.31;57.46
54951;BME280;40854;45.282;4.302;2022-09-30T11:01:40;91751.81;;;15.48;56.80
54951;BME280;40854;45.282;4.302;2022-09-30T11:06:38;91759.84;;;15.72;56.00
54951;BME280;40854;45.282;4.302;2022-09-30T11:09:19;91753.13;;;15.85;56.05
54951;BME280;40854;45.282;4.302;2022-09-30T11:11:57;91751.44;;;15.94;55.61
54951;BME280;40854;45.282;4.302;2022-09-30T11:14:52;91755.28;;;16.07;54.71
54951;BME280;40854;45.282;4.302;2022-09-30T11:20:19;91750.38;;;16.24;54.13
54951;BME280;40854;45.282;4.302;2022-09-30T11:25:47;91750.44;;;16.43;54.20
54951;BME280;40854;45.282;4.302;2022-09-30T11:31:41;91759.84;;;16.54;53.80
54951;BME280;40854;45.282;4.302;2022-09-30T11:34:48;91770.88;;;16.61;53.07
54951;BME280;40854;45.282;4.302;2022-09-30T11:48:51;91768.31;;;16.80;52.59
54951;BME280;40854;45.282;4.302;2022-09-30T11:51:27;91782.25;;;16.85;51.86
54951;BME280;40854;45.282;4.302;2022-09-30T11:56:51;91778.19;;;16.93;51.70
54951;BME280;40854;45.282;4.302;2022-09-30T11:59:29;91773.13;;;16.97;52.13
54951;BME280;40854;45.282;4.302;2022-09-30T12:02:01;91781.28;;;17.00;51.23
54951;BME280;40854;45.282;4.302;2022-09-30T12:04:40;91785.22;;;17.03;51.98
54951;BME280;40854;45.282;4.302;2022-09-30T12:07:18;91786.53;;;17.05;51.86
54951;BME280;40854;45.282;4.302;2022-09-30T12:10:01;91791.47;;;17.12;51.47
54951;BME280;40854;45.282;4.302;2022-09-30T12:12:28;91796.41;;;17.18;51.23
54951;BME280;40854;45.282;4.302;2022-09-30T12:15:06;91795.56;;;17.23;51.89
54951;BME280;40854;45.282;4.302;2022-09-30T12:20:23;91784.63;;;17.30;51.03
54951;BME280;40854;45.282;4.302;2022-09-30T12:22:57;91782.47;;;17.32;51.25
54951;BME280;40854;45.282;4.302;2022-09-30T12:25:38;91784.53;;;17.35;50.63
54951;BME280;40854;45.282;4.302;2022-09-30T12:28:29;91782.91;;;17.39;50.90
54951;BME280;40854;45.282;4.302;2022-09-30T12:31:50;91784.19;;;17.41;50.32
54951;BME280;40854;45.282;4.302;2022-09-30T12:40:20;91778.53;;;17.48;51.13
54951;BME280;40854;45.282;4.302;2022-09-30T12:48:06;91783.88;;;17.62;49.96
54951;BME280;40854;45.282;4.302;2022-09-30T12:50:44;91779.81;;;17.69;50.14
54951;BME280;40854;45.282;4.302;2022-09-30T12:53:19;91784.19;;;17.79;50.06
54951;BME280;40854;45.282;4.302;2022-09-30T12:55:47;91783.53;;;17.87;49.82
54951;BME280;40854;45.282;4.302;2022-09-30T12:58:24;91781.38;;;17.89;49.92
54951;BME280;40854;45.282;4.302;2022-09-30T13:01:04;91793.56;;;17.90;49.08
54951;BME280;40854;45.282;4.302;2022-09-30T13:09:21;91797.88;;;17.86;50.02
54951;BME280;40854;45.282;4.302;2022-09-30T13:14:40;91804.25;;;17.85;49.58
54951;BME280;40854;45.282;4.302;2022-09-30T13:19:42;91808.19;;;17.88;50.18
54951;BME280;40854;45.282;4.302;2022-09-30T13:30:01;91809.03;;;18.02;50.09
54951;BME280;40854;45.282;4.302;2022-09-30T13:32:35;91812.66;;;18.06;49.04
54951;BME280;40854;45.282;4.302;2022-09-30T13:35:34;91820.06;;;18.09;48.96
54951;BME280;40854;45.282;4.302;2022-09-30T13:46:16;91816.97;;;18.02;49.37
54951;BME280;40854;45.282;4.302;2022-09-30T13:49:13;91827.00;;;18.05;48.97
54951;BME280;40854;45.282;4.302;2022-09-30T13:51:43;91840.28;;;18.05;49.26
54951;BME280;40854;45.282;4.302;2022-09-30T13:54:34;91828.00;;;18.09;48.98
54951;BME280;40854;45.282;4.302;2022-09-30T13:57:05;91831.16;;;18.11;49.21
54951;BME280;40854;45.282;4.302;2022-09-30T14:08:02;91834.25;;;18.32;48.65
54951;BME280;40854;45.282;4.302;2022-09-30T14:19:27;91842.28;;;18.59;47.62
54951;BME280;40854;45.282;4.302;2022-09-30T14:22:03;91832.47;;;18.73;48.43
54951;BME280;40854;45.282;4.302;2022-09-30T14:24:33;91843.59;;;18.75;48.04
54951;BME280;40854;45.282;4.302;2022-09-30T14:32:44;91854.44;;;18.93;48.05
54951;BME280;40854;45.282;4.302;2022-09-30T14:35:25;91848.72;;;19.40;46.33
54951;BME280;40854;45.282;4.302;2022-09-30T14:38:25;91848.28;;;20.55;43.90
54951;BME280;40854;45.282;4.302;2022-09-30T14:40:55;91843.47;;;20.97;42.50
54951;BME280;40854;45.282;4.302;2022-09-30T14:43:28;91834.16;;;20.77;43.51
54951;BME280;40854;45.282;4.302;2022-09-30T14:48:50;91842.97;;;20.10;44.76
54951;BME280;40854;45.282;4.302;2022-09-30T14:51:18;91845.91;;;19.87;45.05
54951;BME280;40854;45.282;4.302;2022-09-30T14:53:57;91847.31;;;19.70;45.72
54951;BME280;40854;45.282;4.302;2022-09-30T14:56:29;91846.16;;;19.63;46.09
54951;BME280;40854;45.282;4.302;2022-09-30T14:58:56;91856.41;;;19.56;46.02
54951;BME280;40854;45.282;4.302;2022-09-30T15:01:28;91854.63;;;19.51;46.66
54951;BME280;40854;45.282;4.302;2022-09-30T15:04:02;91856.59;;;19.45;46.41
54951;BME280;40854;45.282;4.302;2022-09-30T15:06:32;91854.22;;;19.44;46.21
54951;BME280;40854;45.282;4.302;2022-09-30T15:09:03;91861.22;;;19.40;46.64
54951;BME280;40854;45.282;4.302;2022-09-30T15:11:30;91855.91;;;19.40;46.38
54951;BME280;40854;45.282;4.302;2022-09-30T15:14:06;91855.72;;;19.36;46.66
54951;BME280;40854;45.282;4.302;2022-09-30T15:16:43;91860.53;;;19.34;46.39
54951;BME280;40854;45.282;4.302;2022-09-30T15:19:19;91858.66;;;19.35;47.00
54951;BME280;40854;45.282;4.302;2022-09-30T15:21:47;91853.66;;;19.33;46.72
54951;BME280;40854;45.282;4.302;2022-09-30T15:24:17;91862.41;;;19.34;46.84
54951;BME280;40854;45.282;4.302;2022-09-30T15:26:44;91861.91;;;19.32;47.21
54951;BME280;40854;45.282;4.302;2022-09-30T15:29:14;91867.25;;;19.32;47.13
54951;BME280;40854;45.282;4.302;2022-09-30T15:31:58;91866.44;;;19.31;46.93
54951;BME280;40854;45.282;4.302;2022-09-30T15:34:26;91873.63;;;19.31;46.79
54951;BME280;40854;45.282;4.302;2022-09-30T15:37:01;91874.44;;;19.31;46.90
54951;BME280;40854;45.282;4.302;2022-09-30T15:39:34;91875.50;;;19.30;47.11
54951;BME280;40854;45.282;4.302;2022-09-30T15:42:40;91873.16;;;19.29;47.16
54951;BME280;40854;45.282;4.302;2022-09-30T15:47:57;91872.66;;;19.27;47.13
54951;BME280;40854;45.282;4.302;2022-09-30T15:50:37;91876.09;;;19.27;46.70
54951;BME280;40854;45.282;4.302;2022-09-30T15:53:19;91870.00;;;19.27;46.92
54951;BME280;40854;45.282;4.302;2022-09-30T15:55:47;91872.66;;;19.27;47.81
54951;BME280;40854;45.282;4.302;2022-09-30T16:00:52;91886.53;;;19.24;47.70
54951;BME280;40854;45.282;4.302;2022-09-30T16:03:34;91882.59;;;19.21;47.99
54951;BME280;40854;45.282;4.302;2022-09-30T16:06:10;91897.97;;;19.24;47.51
54951;BME280;40854;45.282;4.302;2022-09-30T16:08:43;91898.25;;;19.23;47.45
54951;BME280;40854;45.282;4.302;2022-09-30T16:11:22;91893.22;;;19.21;47.86
54951;BME280;40854;45.282;4.302;2022-09-30T16:13:50;91898.06;;;19.19;48.38
54951;BME280;40854;45.282;4.302;2022-09-30T16:16:22;91901.31;;;19.16;47.40
54951;BME280;40854;45.282;4.302;2022-09-30T16:18:52;91905.72;;;19.21;47.73
54951;BME280;40854;45.282;4.302;2022-09-30T16:21:44;91905.72;;;19.21;47.18
54951;BME280;40854;45.282;4.302;2022-09-30T16:27:00;91913.72;;;19.21;47.61
54951;BME280;40854;45.282;4.302;2022-09-30T16:29:39;91917.44;;;19.20;47.75
54951;BME280;40854;45.282;4.302;2022-09-30T16:32:05;91918.81;;;19.17;47.76
54951;BME280;40854;45.282;4.302;2022-09-30T16:34:36;91916.16;;;19.17;47.47
54951;BME280;40854;45.282;4.302;2022-09-30T16:37:09;91921.47;;;19.17;47.46
54951;BME280;40854;45.282;4.302;2022-09-30T16:39:35;91923.66;;;19.15;47.56
54951;BME280;40854;45.282;4.302;2022-09-30T16:42:01;91927.09;;;19.16;47.61
54951;BME280;40854;45.282;4.302;2022-09-30T16:44:29;91934.56;;;19.13;48.23
54951;BME280;40854;45.282;4.302;2022-09-30T16:46:59;91936.25;;;19.09;48.32
54951;BME280;40854;45.282;4.302;2022-09-30T16:49:25;91938.69;;;19.06;48.06
54951;BME280;40854;45.282;4.302;2022-09-30T16:51:51;91943.22;;;19.05;48.38
54951;BME280;40854;45.282;4.302;2022-09-30T16:54:16;91941.16;;;19.02;47.77
54951;BME280;40854;45.282;4.302;2022-09-30T16:56:42;91937.69;;;19.02;47.85
54951;BME280;40854;45.282;4.302;2022-09-30T16:59:13;91947.34;;;18.98;47.76
54951;BME280;40854;45.282;4.302;2022-09-30T17:01:40;91950.28;;;18.96;48.18
54951;BME280;40854;45.282;4.302;2022-09-30T17:04:06;91951.94;;;18.92;48.66
54951;BME280;40854;45.282;4.302;2022-09-30T17:06:33;91956.75;;;18.90;48.77
54951;BME280;40854;45.282;4.302;2022-09-30T17:08:59;91962.66;;;18.87;48.57
54951;BME280;40854;45.282;4.302;2022-09-30T17:11:31;91964.81;;;18.85;48.79
54951;BME280;40854;45.282;4.302;2022-09-30T17:14:01;91975.25;;;18.81;47.91
54951;BME280;40854;45.282;4.302;2022-09-30T17:16:27;91988.03;;;18.79;48.05
54951;BME280;40854;45.282;4.302;2022-09-30T17:18:52;91988.31;;;18.78;48.24
54951;BME280;40854;45.282;4.302;2022-09-30T17:21:20;91994.41;;;18.78;48.03
54951;BME280;40854;45.282;4.302;2022-09-30T17:23:46;91993.13;;;18.76;48.10
54951;BME280;40854;45.282;4.302;2022-09-30T17:26:12;91999.00;;;18.73;48.45
54951;BME280;40854;45.282;4.302;2022-09-30T17:28:37;92008.06;;;18.72;48.75
54951;BME280;40854;45.282;4.302;2022-09-30T17:31:03;92012.38;;;18.68;48.75
54951;BME280;40854;45.282;4.302;2022-09-30T17:33:35;92021.41;;;18.67;49.03
54951;BME280;40854;45.282;4.302;2022-09-30T17:36:04;92032.03;;;18.67;49.23
54951;BME280;40854;45.282;4.302;2022-09-30T17:38:31;92028.88;;;18.65;49.11
54951;BME280;40854;45.282;4.302;2022-09-30T17:40:57;92031.03;;;18.63;48.82
54951;BME280;40854;45.282;4.302;2022-09-30T17:43:41;92027.31;;;18.64;49.76
54951;BME280;40854;45.282;4.302;2022-09-30T17:46:07;92033.69;;;18.63;48.98
54951;BME280;40854;45.282;4.302;2022-09-30T17:48:32;92036.91;;;18.60;49.32
54951;BME280;40854;45.282;4.302;2022-09-30T17:50:58;92049.97;;;18.56;49.65
54951;BME280;40854;45.282;4.302;2022-09-30T17:53:25;92041.50;;;18.54;48.72
54951;BME280;40854;45.282;4.302;2022-09-30T17:56:03;92046.28;;;18.52;49.21
54951;BME280;40854;45.282;4.302;2022-09-30T17:58:29;92041.28;;;18.50;48.71
54951;BME280;40854;45.282;4.302;2022-09-30T18:00:54;92053.75;;;18.50;48.80
54951;BME280;40854;45.282;4.302;2022-09-30T18:03:23;92058.78;;;18.52;48.67
54951;BME280;40854;45.282;4.302;2022-09-30T18:05:57;92069.97;;;18.48;49.20
54951;BME280;40854;45.282;4.302;2022-09-30T18:08:23;92062.00;;;18.48;49.20
54951;BME280;40854;45.282;4.302;2022-09-30T18:10:49;92063.09;;;18.47;49.09
54951;BME280;40854;45.282;4.302;2022-09-30T18:13:16;92074.00;;;18.46;48.83
54951;BME280;40854;45.282;4.302;2022-09-30T18:15:44;92064.75;;;18.43;49.41
54951;BME280;40854;45.282;4.302;2022-09-30T18:18:10;92065.53;;;18.44;48.20
54951;BME280;40854;45.282;4.302;2022-09-30T18:20:47;92070.34;;;18.42;48.80
54951;BME280;40854;45.282;4.302;2022-09-30T18:23:15;92067.97;;;18.40;49.15
54951;BME280;40854;45.282;4.302;2022-09-30T18:25:45;92062.94;;;18.39;48.20
54951;BME280;40854;45.282;4.302;2022-09-30T18:28:11;92066.38;;;18.39;49.25
54951;BME280;40854;45.282;4.302;2022-09-30T18:30:39;92056.84;;;18.38;49.37
54951;BME280;40854;45.282;4.302;2022-09-30T18:33:06;92062.16;;;18.38;48.43
54951;BME280;40854;45.282;4.302;2022-09-30T18:35:34;92061.34;;;18.38;49.62
54951;BME280;40854;45.282;4.302;2022-09-30T18:38:00;92060.56;;;18.37;48.41
54951;BME280;40854;45.282;4.302;2022-09-30T18:40:29;92055.84;;;18.34;49.14
54951;BME280;40854;45.282;4.302;2022-09-30T18:42:57;92060.63;;;18.32;48.76
54951;BME280;40854;45.282;4.302;2022-09-30T18:45:33;92055.09;;;18.29;48.51
54951;BME280;40854;45.282;4.302;2022-09-30T18:48:00;92061.72;;;18.31;49.43
54951;BME280;40854;45.282;4.302;2022-09-30T18:50:28;92061.22;;;18.29;48.68
54951;BME280;40854;45.282;4.302;2022-09-30T18:52:54;92063.56;;;18.31;49.16
54951;BME280;40854;45.282;4.302;2022-09-30T18:55:20;92071.03;;;18.29;48.83
54951;BME280;40854;45.282;4.302;2022-09-30T18:57:46;92070.53;;;18.27;49.04
54951;BME280;40854;45.282;4.302;2022-09-30T19:00:13;92080.88;;;18.28;49.26
54951;BME280;40854;45.282;4.302;2022-09-30T19:02:41;92077.69;;;18.26;48.72
54951;BME280;40854;45.282;4.302;2022-09-30T19:05:09;92083.00;;;18.26;48.62
54951;BME280;40854;45.282;4.302;2022-09-30T19:07:35;92087.53;;;18.26;48.13
54951;BME280;40854;45.282;4.302;2022-09-30T19:10:06;92089.41;;;18.25;49.44
54951;BME280;40854;45.282;4.302;2022-09-30T19:12:34;92096.84;;;18.23;49.15
54951;BME280;40854;45.282;4.302;2022-09-30T19:15:03;92091.81;;;18.22;48.27
54951;BME280;40854;45.282;4.302;2022-09-30T19:17:29;92086.53;;;18.22;49.09
54951;BME280;40854;45.282;4.302;2022-09-30T19:19:56;92095.56;;;18.21;48.90
54951;BME280;40854;45.282;4.302;2022-09-30T19:22:25;92107.28;;;18.20;49.29
54951;BME280;40854;45.282;4.302;2022-09-30T19:24:51;92099.00;;;18.21;48.40
54951;BME280;40854;45.282;4.302;2022-09-30T19:27:17;92098.53;;;18.19;49.15
54951;BME280;40854;45.282;4.302;2022-09-30T19:29:43;92108.81;;;18.21;48.79
54951;BME280;40854;45.282;4.302;2022-09-30T19:32:08;92118.44;;;18.16;49.65
54951;BME280;40854;45.282;4.302;2022-09-30T19:34:37;92133.59;;;18.16;48.83
54951;BME280;40854;45.282;4.302;2022-09-30T19:37:03;92143.13;;;18.17;48.33
54951;BME280;40854;45.282;4.302;2022-09-30T19:39:29;92145.78;;;18.17;49.27
54951;BME280;40854;45.282;4.302;2022-09-30T19:41:54;92149.00;;;18.14;49.42
54951;BME280;40854;45.282;4.302;2022-09-30T19:44:22;92135.78;;;18.09;49.05
54951;BME280;40854;45.282;4.302;2022-09-30T19:46:48;92140.25;;;18.13;49.09
54951;BME280;40854;45.282;4.302;2022-09-30T19:49:14;92143.75;;;18.09;48.85
54951;BME280;40854;45.282;4.302;2022-09-30T19:51:40;92156.22;;;18.08;49.10
54951;BME280;40854;45.282;4.302;2022-09-30T19:54:05;92167.34;;;18.10;49.33
54951;BME280;40854;45.282;4.302;2022-09-30T19:56:31;92162.59;;;18.07;48.83
54951;BME280;40854;45.282;4.302;2022-09-30T19:58:57;92162.31;;;18.09;49.64
54951;BME280;40854;45.282;4.302;2022-09-30T20:01:26;92160.75;;;18.08;49.53
54951;BME280;40854;45.282;4.302;2022-09-30T20:03:53;92160.22;;;18.06;49.75
54951;BME280;40854;45.282;4.302;2022-09-30T20:06:20;92169.22;;;18.10;48.85
54951;BME280;40854;45.282;4.302;2022-09-30T20:08:55;92180.91;;;18.09;48.74
54951;BME280;40854;45.282;4.302;2022-09-30T20:11:31;92168.69;;;18.08;49.18
54951;BME280;40854;45.282;4.302;2022-09-30T20:14:01;92168.69;;;18.08;48.43
54951;BME280;40854;45.282;4.302;2022-09-30T20:16:45;92168.19;;;18.06;49.36
54951;BME280;40854;45.282;4.302;2022-09-30T20:19:15;92178.81;;;18.06;49.39
54951;BME280;40854;45.282;4.302;2022-09-30T20:21:42;92176.72;;;18.03;48.81
54951;BME280;40854;45.282;4.302;2022-09-30T20:24:10;92177.50;;;18.03;49.44
54951;BME280;40854;45.282;4.302;2022-09-30T20:26:37;92191.28;;;18.05;48.24
54951;BME280;40854;45.282;4.302;2022-09-30T20:29:04;92196.06;;;18.03;49.18
54951;BME280;40854;45.282;4.302;2022-09-30T20:31:33;92180.22;;;17.98;49.13
54951;BME280;40854;45.282;4.302;2022-09-30T20:33:59;92190.78;;;18.03;48.23
54951;BME280;40854;45.282;4.302;2022-09-30T20:36:27;92189.19;;;18.02;49.71
54951;BME280;40854;45.282;4.302;2022-09-30T20:38:55;92190.78;;;18.03;48.55
54951;BME280;40854;45.282;4.302;2022-09-30T20:41:29;92181.00;;;17.99;49.02
54951;BME280;40854;45.282;4.302;2022-09-30T20:43:56;92187.59;;;18.01;48.64
54951;BME280;40854;45.282;4.302;2022-09-30T20:46:23;92192.91;;;18.01;49.15
54951;BME280;40854;45.282;4.302;2022-09-30T20:48:49;92194.78;;;18.01;48.11
54951;BME280;40854;45.282;4.302;2022-09-30T20:51:19;92200.63;;;17.98;48.68
54951;BME280;40854;45.282;4.302;2022-09-30T20:53:52;92192.16;;;17.96;49.48
54951;BME280;40854;45.282;4.302;2022-09-30T20:56:18;92185.00;;;17.96;49.26
54951;BME280;40854;45.282;4.302;2022-09-30T20:58:49;92190.03;;;17.98;49.51
54951;BME280;40854;45.282;4.302;2022-09-30T21:01:17;92196.69;;;17.95;48.18
54951;BME280;40854;45.282;4.302;2022-09-30T21:03:45;92195.09;;;17.94;48.85
54951;BME280;40854;45.282;4.302;2022-09-30T21:06:19;92197.53;;;17.91;48.77
54951;BME280;40854;45.282;4.302;2022-09-30T21:08:45;92204.91;;;17.94;48.48
54951;BME280;40854;45.282;4.302;2022-09-30T21:11:12;92198.59;;;17.90;48.40
54951;BME280;40854;45.282;4.302;2022-09-30T21:13:46;92204.69;;;17.90;48.13
54951;BME280;40854;45.282;4.302;2022-09-30T21:16:14;92218.47;;;17.92;48.24
54951;BME280;40854;45.282;4.302;2022-09-30T21:18:44;92220.09;;;17.88;48.96
54951;BME280;40854;45.282;4.302;2022-09-30T21:21:12;92211.06;;;17.89;49.17
54951;BME280;40854;45.282;4.302;2022-09-30T21:23:38;92212.69;;;17.85;49.28
54951;BME280;40854;45.282;4.302;2022-09-30T21:26:09;92212.41;;;17.87;48.29
54951;BME280;40854;45.282;4.302;2022-09-30T21:28:36;92220.13;;;17.83;48.51
54951;BME280;40854;45.282;4.302;2022-09-30T21:31:06;92216.69;;;17.82;48.33
54951;BME280;40854;45.282;4.302;2022-09-30T21:33:33;92211.38;;;17.82;49.36
54951;BME280;40854;45.282;4.302;2022-09-30T21:36:03;92218.31;;;17.78;49.40
54951;BME280;40854;45.282;4.302;2022-09-30T21:38:30;92222.56;;;17.79;48.90
54951;BME280;40854;45.282;4.302;2022-09-30T21:41:01;92216.75;;;17.77;49.15
54951;BME280;40854;45.282;4.302;2022-09-30T21:43:31;92219.38;;;17.77;49.20
54951;BME280;40854;45.282;4.302;2022-09-30T21:46:00;92218.38;;;17.73;48.81
54951;BME280;40854;45.282;4.302;2022-09-30T21:48:27;92218.88;;;17.75;48.19
54951;BME280;40854;45.282;4.302;2022-09-30T21:50:53;92222.59;;;17.74;48.89
54951;BME280;40854;45.282;4.302;2022-09-30T21:53:20;92228.97;;;17.73;49.28
54951;BME280;40854;45.282;4.302;2022-09-30T21:55:49;92215.72;;;17.73;49.34
54951;BME280;40854;45.282;4.302;2022-09-30T21:58:15;92215.19;;;17.71;48.07
54951;BME280;40854;45.282;4.302;2022-09-30T22:00:41;92217.84;;;17.71;49.23
54951;BME280;40854;45.282;4.302;2022-09-30T22:03:08;92222.63;;;17.69;48.17
54951;BME280;40854;45.282;4.302;2022-09-30T22:05:33;92233.53;;;17.68;48.68
54951;BME280;40854;45.282;4.302;2022-09-30T22:08:01;92230.88;;;17.68;48.41
54951;BME280;40854;45.282;4.302;2022-09-30T22:10:27;92230.09;;;17.67;49.25
54951;BME280;40854;45.282;4.302;2022-09-30T22:12:52;92243.34;;;17.67;48.58
54951;BME280;40854;45.282;4.302;2022-09-30T22:15:18;92237.78;;;17.64;49.20
54951;BME280;40854;45.282;4.302;2022-09-30T22:17:43;92250.75;;;17.65;49.02
54951;BME280;40854;45.282;4.302;2022-09-30T22:20:09;92240.97;;;17.66;49.15
54951;BME280;40854;45.282;4.302;2022-09-30T22:22:36;92235.16;;;17.59;49.13
54951;BME280;40854;45.282;4.302;2022-09-30T22:25:02;92263.78;;;17.62;49.12
54951;BME280;40854;45.282;4.302;2022-09-30T22:27:30;92250.78;;;17.60;48.55
54951;BME280;40854;45.282;4.302;2022-09-30T22:29:56;92253.44;;;17.60;48.10
54951;BME280;40854;45.282;4.302;2022-09-30T22:32:23;92257.16;;;17.59;48.12
54951;BME280;40854;45.282;4.302;2022-09-30T22:34:49;92251.84;;;17.59;48.58
54951;BME280;40854;45.282;4.302;2022-09-30T22:37:32;92253.47;;;17.55;48.47
54951;BME280;40854;45.282;4.302;2022-09-30T22:40:30;92256.66;;;17.57;48.85
54951;BME280;40854;45.282;4.302;2022-09-30T22:42:56;92256.13;;;17.55;49.19
54951;BME280;40854;45.282;4.302;2022-09-30T22:45:22;92252.97;;;17.53;48.23
54951;BME280;40854;45.282;4.302;2022-09-30T22:47:48;92261.44;;;17.55;48.98
54951;BME280;40854;45.282;4.302;2022-09-30T22:50:14;92264.13;;;17.50;48.91
54951;BME280;40854;45.282;4.302;2022-09-30T22:52:40;92253.50;;;17.50;48.76
54951;BME280;40854;45.282;4.302;2022-09-30T22:55:05;92258.28;;;17.48;48.78
54951;BME280;40854;45.282;4.302;2022-09-30T22:57:31;92252.22;;;17.47;47.75
54951;BME280;40854;45.282;4.302;2022-09-30T22:59:57;92241.09;;;17.45;48.99
54951;BME280;40854;45.282;4.302;2022-09-30T23:02:23;92253.00;;;17.48;48.38
54951;BME280;40854;45.282;4.302;2022-09-30T23:04:48;92251.13;;;17.48;48.87
54951;BME280;40854;45.282;4.302;2022-09-30T23:07:15;92248.47;;;17.48;49.04
54951;BME280;40854;45.282;4.302;2022-09-30T23:09:41;92255.91;;;17.46;48.35
54951;BME280;40854;45.282;4.302;2022-09-30T23:12:07;92262.56;;;17.44;48.34
54951;BME280;40854;45.282;4.302;2022-09-30T23:14:33;92266.00;;;17.44;48.87
54951;BME280;40854;45.282;4.302;2022-09-30T23:16:59;92269.44;;;17.45;48.44
54951;BME280;40854;45.282;4.302;2022-09-30T23:19:24;92267.34;;;17.42;48.48
54951;BME280;40854;45.282;4.302;2022-09-30T23:21:50;92273.97;;;17.44;48.97
54951;BME280;40854;45.282;4.302;2022-09-30T23:24:15;92268.16;;;17.42;48.60
54951;BME280;40854;45.282;4.302;2022-09-30T23:26:41;92275.03;;;17.43;47.62
54951;BME280;40854;45.282;4.302;2022-09-30T23:29:10;92270.00;;;17.42;48.90
54951;BME280;40854;45.282;4.302;2022-09-30T23:31:36;92271.84;;;17.41;48.40
54951;BME280;40854;45.282;4.302;2022-09-30T23:34:02;92268.69;;;17.39;48.10
54951;BME280;40854;45.282;4.302;2022-09-30T23:36:31;92269.47;;;17.40;48.56
54951;BME280;40854;45.282;4.302;2022-09-30T23:41:26;92265.25;;;17.39;48.88
54951;BME280;40854;45.282;4.302;2022-09-30T23:43:51;92274.25;;;17.38;48.75
54951;BME280;40854;45.282;4.302;2022-09-30T23:46:17;92273.47;;;17.37;47.92
54951;BME280;40854;45.282;4.302;2022-09-30T23:48:44;92270.81;;;17.37;48.42
54951;BME280;40854;45.282;4.302;2022-09-30T23:51:11;92263.94;;;17.36;48.29
54951;BME280;40854;45.282;4.302;2022-09-30T23:53:37;92264.22;;;17.35;48.08
54951;BME280;40854;45.282;4.302;2022-09-30T23:56:14;92266.88;;;17.35;48.19
54951;BME280;40854;45.282;4.302;2022-09-30T23:58:41;92256.53;;;17.33;48.25
